LFSN METAR and TAF | Updated Today

LFSN METAR

Nancy-Essey Airport

Observation time: 24 min. ago

LFSN 061900Z AUTO 04008KT 9999 BKN045 01/M02 Q1036

Need help? Read our tutorial on how to read METARs or read the parsed version below.

Nancy-Essey Airport (LFSN) METAR

  • Weather conditions on Mon, 06 Feb 2023 19:00:00 +0000 (24 min. ago):
  • Present conditions: Dry
  • Clouds: Broken sky at 1372 meters
  • Visibility: Greater than 10 km
  • Wind: 40 degrees at 8 knots
  • Temperature: 1 celsius
  • Dew point: -2 celsius
  • Pressure: 1036 millibars
  • Remarks: None


Useful to know...

  • Codes: LFSN/ENC
  • Airport elevation: 751ft
  • Municipality: Nancy/Essey
  • Country: France
  • Continent: Europe

LFSN TAF

Nancy-Essey Airport

TAF not found.